Edmeston, New York
Current Conditions -  °F | °C
As of 9:53 PM on Saturday 20 Dec 2014 (Local Time) from KRME Reporting Station
Overcast Overcast  
Wind Chill: 25°   Ceiling: 2700
Heat Index: 25°   Visibility: 10mi
Dew Point: 19°   Wind: 3mph
Humidity: 78%   Direction: 100°E
Pressure: 30.32"   Gusts: NA
Location:  42.7°N, 75.24°W
Report Text: KRME 210253Z AUTO 10003KT 10SM OVC027 M04/M07 A3032 RMK AO2 SLP273 T10391072 55000
Loading
Personal Weather Stations






























Interactive Weather Map New forecast layout! Learn more

10-Day Weather Forecast

Advertisements
Track Severe Weather on mobile